Time;durP1;ratioP1;P1;durP2;ratioP2;P2;SDS_P1;SDS_P2;PMS_P1;PMS_P2;Temp;Humidity;BMP_temperature;BMP_pressure;BME280_temperature;BME280_humidity;BME280_pressure;Samples;Min_cycle;Max_cycle;Signal;HPM_P1;HPM_P2
2022/07/21 00:01:07;;;;;;;32.88;30.48;;;;;;;;;;4994017;28;20018;-52
2022/07/21 00:03:33;;;;;;;32.88;30.40;;;;;;;;;;4994067;28;20065;-54
2022/07/21 00:06:00;;;;;;;32.05;29.65;;;;;;;;;;4994061;28;20066;-53
2022/07/21 00:08:26;;;;;;;33.42;31.02;;;;;;;;;;4993849;28;20027;-54
2022/07/21 00:10:52;;;;;;;31.17;28.77;;;;;;;;;;4993903;28;20539;-52
2022/07/21 00:13:18;;;;;;;31.00;28.70;;;;;;;;;;4992544;28;20509;-53
2022/07/21 00:15:45;;;;;;;31.85;29.45;;;;;;;;;;4993652;28;20038;-53
2022/07/21 00:18:11;;;;;;;31.85;29.55;;;;;;;;;;4993295;28;20026;-52
2022/07/21 00:20:37;;;;;;;32.05;29.73;;;;;;;;;;4993525;28;20029;-50
2022/07/21 00:23:03;;;;;;;31.75;29.45;;;;;;;;;;4992606;28;20565;-48
2022/07/21 00:25:29;;;;;;;31.95;29.55;;;;;;;;;;4993564;28;20030;-52
2022/07/21 00:27:55;;;;;;;30.90;28.50;;;;;;;;;;4992286;28;20077;-50
2022/07/21 00:30:21;;;;;;;31.10;28.80;;;;;;;;;;4993397;28;20403;-48
2022/07/21 00:32:47;;;;;;;35.15;32.65;;;;;;;;;;4992180;28;20096;-50
2022/07/21 00:35:14;;;;;;;37.70;34.90;;;;;;;;;;4993420;28;20022;-54
2022/07/21 00:37:40;;;;;;;34.42;31.92;;;;;;;;;;4993191;28;20458;-48
2022/07/21 00:40:07;;;;;;;34.70;32.20;;;;;;;;;;4993407;28;20106;-52
2022/07/21 00:42:33;;;;;;;35.38;32.88;;;;;;;;;;4993210;28;20034;-52
2022/07/21 00:44:59;;;;;;;35.53;33.03;;;;;;;;;;4991993;28;20403;-54
2022/07/21 00:47:26;;;;;;;35.10;32.50;;;;;;;;;;4993124;28;20394;-52
2022/07/21 00:49:53;;;;;;;35.33;32.67;;;;;;;;;;4993322;28;20037;-51
2022/07/21 00:52:19;;;;;;;34.45;31.95;;;;;;;;;;4992957;28;20479;-49
2022/07/21 00:54:45;;;;;;;34.53;32.03;;;;;;;;;;4993083;28;20033;-53
2022/07/21 00:57:11;;;;;;;33.35;30.85;;;;;;;;;;4992619;28;20121;-55
2022/07/21 00:59:37;;;;;;;33.70;31.20;;;;;;;;;;4992948;28;20026;-56
2022/07/21 01:02:04;;;;;;;33.63;31.13;;;;;;;;;;4992943;28;20457;-55
2022/07/21 01:04:30;;;;;;;38.38;30.75;;;;;;;;;;4992746;28;20169;-52
2022/07/21 01:06:56;;;;;;;34.03;31.52;;;;;;;;;;4991560;28;20058;-54
2022/07/21 01:09:23;;;;;;;35.50;32.92;;;;;;;;;;4992755;28;20031;-55
2022/07/21 01:11:49;;;;;;;34.43;31.93;;;;;;;;;;4992699;28;20026;-52
2022/07/21 01:14:16;;;;;;;35.15;32.65;;;;;;;;;;4992738;28;20390;-53
2022/07/21 01:16:43;;;;;;;36.08;33.47;;;;;;;;;;4992786;28;20447;-52
2022/07/21 01:19:09;;;;;;;35.55;33.05;;;;;;;;;;4992836;28;20430;-53
2022/07/21 01:21:39;;;;;;;37.15;34.33;;;;;;;;;;4992695;28;20495;-51
2022/07/21 01:24:06;;;;;;;38.65;35.95;;;;;;;;;;4992579;28;20044;-49
2022/07/21 01:26:40;;;;;;;36.92;34.30;;;;;;;;;;4993654;28;20502;-51
2022/07/21 01:29:05;;;;;;;35.90;33.30;;;;;;;;;;4994215;28;20033;-51
2022/07/21 01:31:31;;;;;;;37.40;34.80;;;;;;;;;;4992451;28;20034;-51
2022/07/21 01:33:57;;;;;;;38.40;35.70;;;;;;;;;;4992528;28;20019;-50
2022/07/21 01:36:23;;;;;;;38.80;36.10;;;;;;;;;;4992588;28;20030;-55
2022/07/21 01:41:39;;;;;;;38.60;35.95;;;;;;;;;;4990935;28;20030;-54
2022/07/21 01:44:09;;;;;;;37.88;35.28;;;;;;;;;;4992493;28;20043;-56
2022/07/21 01:46:37;;;;;;;37.47;34.72;;;;;;;;;;4992483;28;20033;-52
2022/07/21 01:49:03;;;;;;;36.17;33.67;;;;;;;;;;4992017;28;20026;-54
2022/07/21 01:51:29;;;;;;;35.65;33.10;;;;;;;;;;4992207;28;20063;-51
2022/07/21 01:53:55;;;;;;;32.58;30.17;;;;;;;;;;4992333;28;20033;-49
2022/07/21 01:56:22;;;;;;;34.10;31.40;;;;;;;;;;4992374;28;20065;-53
2022/07/21 01:58:49;;;;;;;32.58;30.17;;;;;;;;;;4992172;28;20026;-51
2022/07/21 02:01:16;;;;;;;38.10;35.50;;;;;;;;;;4992201;28;20518;-52
2022/07/21 02:03:42;;;;;;;42.50;39.60;;;;;;;;;;4992268;28;20034;-48
2022/07/21 02:06:09;;;;;;;43.75;40.65;;;;;;;;;;4992255;28;20065;-48
2022/07/21 02:08:35;;;;;;;43.78;40.78;;;;;;;;;;4990764;28;20023;-51
2022/07/21 02:11:01;;;;;;;41.70;38.80;;;;;;;;;;4992245;28;20076;-54
2022/07/21 02:13:27;;;;;;;41.22;37.75;;;;;;;;;;4992196;28;20459;-51
2022/07/21 02:15:53;;;;;;;38.92;36.22;;;;;;;;;;4991614;28;20025;-53
2022/07/21 02:18:20;;;;;;;38.40;35.70;;;;;;;;;;4990838;28;20049;-52
2022/07/21 02:20:47;;;;;;;37.78;35.08;;;;;;;;;;4992338;28;20382;-53
2022/07/21 02:23:13;;;;;;;41.40;37.17;;;;;;;;;;4992429;28;20034;-49
2022/07/21 02:25:39;;;;;;;38.15;35.45;;;;;;;;;;4992075;28;20022;-49
2022/07/21 02:28:06;;;;;;;37.17;34.47;;;;;;;;;;4991473;28;20046;-49
2022/07/21 02:30:32;;;;;;;39.70;36.70;;;;;;;;;;4990634;28;20050;-51
2022/07/21 02:32:58;;;;;;;39.55;36.70;;;;;;;;;;4992049;28;20110;-53
2022/07/21 02:35:24;;;;;;;39.40;36.60;;;;;;;;;;4992114;28;20034;-53
2022/07/21 02:37:50;;;;;;;38.65;35.90;;;;;;;;;;4992022;28;20033;-55
2022/07/21 02:40:16;;;;;;;38.72;35.92;;;;;;;;;;4992078;28;20038;-53
2022/07/21 02:42:42;;;;;;;39.90;37.10;;;;;;;;;;4991989;28;20372;-55
2022/07/21 02:45:09;;;;;;;40.78;37.97;;;;;;;;;;4991802;28;20114;-54
2022/07/21 02:47:54;;;;;;;40.00;37.20;;;;;;;;;;4991746;28;20030;-52
2022/07/21 02:50:20;;;;;;;40.80;38.00;;;;;;;;;;4992649;28;20028;-49
2022/07/21 02:52:47;;;;;;;41.50;38.30;;;;;;;;;;4995454;28;20026;-52
2022/07/21 02:55:13;;;;;;;40.95;38.15;;;;;;;;;;4995197;28;20030;-52
2022/07/21 02:57:39;;;;;;;41.90;39.05;;;;;;;;;;4993847;28;20478;-54
2022/07/21 03:00:06;;;;;;;42.75;39.50;;;;;;;;;;4995181;28;20034;-51
2022/07/21 03:02:32;;;;;;;41.13;38.33;;;;;;;;;;4995364;28;20391;-49
2022/07/21 03:04:58;;;;;;;41.58;38.78;;;;;;;;;;4995339;28;20035;-49
2022/07/21 03:07:24;;;;;;;40.63;37.83;;;;;;;;;;4994956;28;20030;-52
2022/07/21 03:09:50;;;;;;;40.20;37.40;;;;;;;;;;4995231;28;20030;-53
2022/07/21 03:12:16;;;;;;;41.70;38.80;;;;;;;;;;4994945;28;20080;-49
2022/07/21 03:14:42;;;;;;;42.30;39.25;;;;;;;;;;4994962;28;20026;-53
2022/07/21 03:17:08;;;;;;;39.88;37.10;;;;;;;;;;4993492;28;20057;-50
2022/07/21 03:19:34;;;;;;;41.63;38.72;;;;;;;;;;4994796;28;20026;-50
2022/07/21 03:22:00;;;;;;;39.88;36.95;;;;;;;;;;4994910;28;20026;-48
2022/07/21 03:24:26;;;;;;;38.30;35.60;;;;;;;;;;4994691;28;20038;-48
2022/07/21 03:26:52;;;;;;;39.10;36.30;;;;;;;;;;4994735;28;20027;-47
2022/07/21 03:29:18;;;;;;;39.00;36.20;;;;;;;;;;4994030;28;20073;-50
2022/07/21 03:31:44;;;;;;;32.67;30.27;;;;;;;;;;4991468;28;20407;-51
2022/07/21 03:34:10;;;;;;;30.83;28.52;;;;;;;;;;4992627;28;20052;-53
2022/07/21 03:36:36;;;;;;;31.67;29.33;;;;;;;;;;4994418;28;20364;-52
2022/07/21 03:39:02;;;;;;;31.15;28.85;;;;;;;;;;4994471;28;20069;-52
2022/07/21 03:41:28;;;;;;;32.15;29.75;;;;;;;;;;4994349;28;20022;-53
2022/07/21 03:43:53;;;;;;;33.03;30.52;;;;;;;;;;4994074;28;20022;-53
2022/07/21 03:46:19;;;;;;;31.48;29.08;;;;;;;;;;4993274;28;20030;-50
2022/07/21 03:48:45;;;;;;;29.95;27.63;;;;;;;;;;4994172;28;20461;-49
2022/07/21 03:51:11;;;;;;;30.92;28.55;;;;;;;;;;4994169;28;20034;-48
2022/07/21 03:53:37;;;;;;;31.02;28.63;;;;;;;;;;4994048;28;20049;-51
2022/07/21 03:56:04;;;;;;;31.70;29.30;;;;;;;;;;4993847;28;20030;-50
2022/07/21 03:58:30;;;;;;;30.50;28.10;;;;;;;;;;4994047;28;20030;-49
2022/07/21 04:00:56;;;;;;;30.80;28.40;;;;;;;;;;4993644;28;20468;-49
2022/07/21 04:03:22;;;;;;;29.65;27.35;;;;;;;;;;4992640;28;20026;-49
2022/07/21 04:05:48;;;;;;;31.25;28.73;;;;;;;;;;4993393;28;20034;-50
2022/07/21 04:08:14;;;;;;;29.27;26.98;;;;;;;;;;4987593;28;20026;-48
2022/07/21 04:10:41;;;;;;;30.42;28.02;;;;;;;;;;4993719;28;20031;-47
2022/07/21 04:13:09;;;;;;;31.92;29.42;;;;;;;;;;4992450;28;20026;-50
2022/07/21 04:15:35;;;;;;;31.38;28.98;;;;;;;;;;4993707;28;20026;-53
2022/07/21 04:18:02;;;;;;;32.10;29.60;;;;;;;;;;4993389;28;20089;-52
2022/07/21 04:20:28;;;;;;;33.00;30.50;;;;;;;;;;4993538;28;20030;-48
2022/07/21 04:22:54;;;;;;;34.33;31.73;;;;;;;;;;4993811;28;20026;-50
2022/07/21 04:25:20;;;;;;;35.45;32.75;;;;;;;;;;4993431;28;20069;-47
2022/07/21 04:27:47;;;;;;;33.85;31.27;;;;;;;;;;4993303;28;20494;-48
2022/07/21 04:30:15;;;;;;;33.63;31.10;;;;;;;;;;4993501;28;20033;-51
2022/07/21 04:32:41;;;;;;;33.65;31.05;;;;;;;;;;4993693;28;20022;-50
2022/07/21 04:35:08;;;;;;;33.47;30.98;;;;;;;;;;4993427;28;20052;-51
2022/07/21 04:37:34;;;;;;;34.83;32.13;;;;;;;;;;4993036;28;20030;-49
2022/07/21 04:40:00;;;;;;;34.20;31.60;;;;;;;;;;4993260;28;20030;-48
2022/07/21 04:42:26;;;;;;;35.65;32.95;;;;;;;;;;4993170;28;20027;-51
2022/07/21 04:44:52;;;;;;;34.03;31.42;;;;;;;;;;4992983;28;20062;-51
2022/07/21 04:47:18;;;;;;;35.00;32.40;;;;;;;;;;4992784;28;20023;-45
2022/07/21 04:49:44;;;;;;;34.17;31.58;;;;;;;;;;4993090;28;20084;-49
2022/07/21 04:52:10;;;;;;;35.22;32.53;;;;;;;;;;4992904;28;20395;-48
2022/07/21 04:54:36;;;;;;;35.13;32.42;;;;;;;;;;4993277;28;20030;-48
2022/07/21 04:57:04;;;;;;;34.40;31.75;;;;;;;;;;4993285;28;20033;-48
2022/07/21 04:59:30;;;;;;;37.10;33.30;;;;;;;;;;4992692;28;20108;-50
2022/07/21 05:01:56;;;;;;;34.53;31.92;;;;;;;;;;4992741;28;20034;-54
2022/07/21 05:04:22;;;;;;;37.42;34.50;;;;;;;;;;4992722;28;20510;-52
2022/07/21 05:06:48;;;;;;;34.80;32.20;;;;;;;;;;4992754;28;20053;-50
2022/07/21 05:09:14;;;;;;;36.40;33.70;;;;;;;;;;4988000;28;20029;-53
2022/07/21 05:11:40;;;;;;;36.75;33.95;;;;;;;;;;4992585;28;20391;-52
2022/07/21 05:14:06;;;;;;;36.20;33.50;;;;;;;;;;4992027;28;20105;-53
2022/07/21 05:16:32;;;;;;;36.38;33.67;;;;;;;;;;4992571;28;20438;-53
2022/07/21 05:18:58;;;;;;;35.53;32.88;;;;;;;;;;4992642;28;20023;-54
2022/07/21 05:21:24;;;;;;;35.75;32.95;;;;;;;;;;4992495;28;20022;-55
2022/07/21 05:23:50;;;;;;;35.17;32.58;;;;;;;;;;4992334;28;20018;-53
2022/07/21 05:26:16;;;;;;;34.83;32.22;;;;;;;;;;4992389;28;20061;-52
2022/07/21 05:28:43;;;;;;;34.70;32.10;;;;;;;;;;4992620;28;20038;-49
2022/07/21 05:31:09;;;;;;;34.65;32.05;;;;;;;;;;4991991;28;20019;-54
2022/07/21 05:33:36;;;;;;;35.25;32.45;;;;;;;;;;4990663;28;20438;-53
2022/07/21 05:36:02;;;;;;;34.85;32.25;;;;;;;;;;4992287;28;20031;-48
2022/07/21 05:38:28;;;;;;;33.92;31.42;;;;;;;;;;4990710;28;20084;-49
2022/07/21 05:40:54;;;;;;;34.92;32.20;;;;;;;;;;4992060;28;20457;-50
2022/07/21 05:43:20;;;;;;;34.08;31.58;;;;;;;;;;4992162;28;20030;-52
2022/07/21 05:45:46;;;;;;;34.70;32.00;;;;;;;;;;4992051;28;20027;-51
2022/07/21 05:48:12;;;;;;;34.22;31.73;;;;;;;;;;4991734;28;20118;-52
2022/07/21 05:50:38;;;;;;;35.00;32.30;;;;;;;;;;4991833;28;20463;-50
2022/07/21 05:53:04;;;;;;;34.20;31.70;;;;;;;;;;4992144;28;20042;-52
2022/07/21 05:55:30;;;;;;;36.13;33.42;;;;;;;;;;4992348;28;20022;-50
2022/07/21 05:57:56;;;;;;;36.83;33.65;;;;;;;;;;4991903;28;20538;-49
2022/07/21 06:00:22;;;;;;;35.75;33.05;;;;;;;;;;4990727;28;20026;-51
2022/07/21 06:02:50;;;;;;;34.85;32.30;;;;;;;;;;4991983;28;20105;-50
2022/07/21 06:05:16;;;;;;;34.88;32.38;;;;;;;;;;4991849;28;20479;-52
2022/07/21 06:07:42;;;;;;;35.53;32.90;;;;;;;;;;4990240;28;20418;-54
2022/07/21 06:10:09;;;;;;;33.90;31.40;;;;;;;;;;4991908;28;20018;-49
2022/07/21 06:12:35;;;;;;;34.63;32.13;;;;;;;;;;4990510;28;20027;-49
2022/07/21 06:15:01;;;;;;;33.80;31.40;;;;;;;;;;4991708;28;20040;-51
2022/07/21 06:17:31;;;;;;;32.15;29.80;;;;;;;;;;4991613;28;20023;-48
2022/07/21 06:19:57;;;;;;;30.70;28.40;;;;;;;;;;4991710;28;20026;-53
2022/07/21 06:22:23;;;;;;;32.20;29.83;;;;;;;;;;4991433;28;20081;-51
2022/07/21 06:24:49;;;;;;;29.98;27.77;;;;;;;;;;4992076;28;20026;-51
2022/07/21 06:27:15;;;;;;;29.00;26.80;;;;;;;;;;4995661;28;20038;-53
2022/07/21 06:29:41;;;;;;;28.08;25.88;;;;;;;;;;4995572;28;20030;-51
2022/07/21 06:32:07;;;;;;;26.50;24.40;;;;;;;;;;4995516;28;20033;-50
2022/07/21 06:34:33;;;;;;;26.33;24.15;;;;;;;;;;4995583;28;20093;-53
2022/07/21 06:36:59;;;;;;;23.25;21.30;;;;;;;;;;4995269;28;20023;-49
2022/07/21 06:39:25;;;;;;;21.42;19.52;;;;;;;;;;4994694;28;20101;-55
2022/07/21 06:41:51;;;;;;;19.42;17.63;;;;;;;;;;4994858;28;20026;-52
2022/07/21 06:44:17;;;;;;;18.27;16.48;;;;;;;;;;4993733;28;20030;-48
2022/07/21 06:46:43;;;;;;;17.58;15.88;;;;;;;;;;4993891;28;20126;-52
2022/07/21 06:49:09;;;;;;;17.58;15.82;;;;;;;;;;4993620;28;20023;-49
2022/07/21 06:51:35;;;;;;;16.55;14.85;;;;;;;;;;4995972;28;20430;-50
2022/07/21 06:54:01;;;;;;;16.27;14.57;;;;;;;;;;4995371;28;20037;-54
2022/07/21 06:56:27;;;;;;;15.45;13.75;;;;;;;;;;4995191;28;20070;-50
2022/07/21 06:58:53;;;;;;;15.85;14.02;;;;;;;;;;4994630;28;20117;-52
2022/07/21 07:01:19;;;;;;;17.50;14.68;;;;;;;;;;4994864;28;20053;-51
2022/07/21 07:03:46;;;;;;;15.52;13.82;;;;;;;;;;4993752;28;20026;-52
2022/07/21 07:06:12;;;;;;;14.95;12.80;;;;;;;;;;4994987;28;20459;-50
2022/07/21 07:08:39;;;;;;;15.70;12.45;;;;;;;;;;4994815;28;20110;-48
2022/07/21 07:11:05;;;;;;;15.75;12.23;;;;;;;;;;4994821;28;20034;-51
2022/07/21 07:13:31;;;;;;;15.68;12.27;;;;;;;;;;4994952;28;20033;-53
2022/07/21 07:15:57;;;;;;;15.60;13.23;;;;;;;;;;4994763;28;20106;-57
2022/07/21 07:18:24;;;;;;;18.42;12.48;;;;;;;;;;4994268;28;20026;-53
2022/07/21 07:20:51;;;;;;;15.50;11.82;;;;;;;;;;4994286;28;20030;-54
2022/07/21 07:23:17;;;;;;;15.93;12.18;;;;;;;;;;4994691;28;20034;-56
2022/07/21 07:25:43;;;;;;;14.80;11.32;;;;;;;;;;4994350;28;20035;-56
2022/07/21 07:28:09;;;;;;;14.60;11.27;;;;;;;;;;4994222;28;20430;-58
2022/07/21 07:30:35;;;;;;;17.88;12.13;;;;;;;;;;4993975;28;20022;-56
2022/07/21 07:33:01;;;;;;;14.55;11.25;;;;;;;;;;4994310;28;20023;-57
2022/07/21 07:35:27;;;;;;;15.68;12.13;;;;;;;;;;4993838;28;20406;-56
2022/07/21 07:37:53;;;;;;;15.30;12.00;;;;;;;;;;4992150;28;20045;-57
2022/07/21 07:40:21;;;;;;;18.40;12.95;;;;;;;;;;4994223;28;20428;-55
2022/07/21 07:42:47;;;;;;;17.13;10.50;;;;;;;;;;4994157;28;20197;-56
2022/07/21 07:45:13;;;;;;;16.25;11.27;;;;;;;;;;4993958;28;20030;-55
2022/07/21 07:47:39;;;;;;;14.45;11.10;;;;;;;;;;4993817;28;20057;-58
2022/07/21 07:50:08;;;;;;;18.30;12.43;;;;;;;;;;4992611;28;20041;-55
2022/07/21 07:52:34;;;;;;;;;;;;;;;;;;4994519;28;20030;-58
2022/07/21 07:55:03;;;;;;;18.65;12.65;;;;;;;;;;4992682;28;19961;-54
2022/07/21 07:57:29;;;;;;;14.02;10.15;;;;;;;;;;4993795;28;20491;-54
2022/07/21 07:59:55;;;;;;;14.48;10.02;;;;;;;;;;4994026;28;20038;-53
2022/07/21 08:02:21;;;;;;;14.15;9.98;;;;;;;;;;4993556;28;20033;-54
2022/07/21 08:04:47;;;;;;;15.52;11.10;;;;;;;;;;4993882;28;20031;-52
2022/07/21 08:07:13;;;;;;;14.95;10.65;;;;;;;;;;4993474;28;20022;-55
2022/07/21 08:09:40;;;;;;;14.52;10.85;;;;;;;;;;4993615;28;20101;-63
2022/07/21 08:12:06;;;;;;;14.10;10.13;;;;;;;;;;4993805;28;20027;-63
2022/07/21 08:14:32;;;;;;;17.15;10.77;;;;;;;;;;4993718;28;20038;-59
2022/07/21 08:16:59;;;;;;;38.55;32.20;;;;;;;;;;4994050;28;20426;-52
2022/07/21 08:19:26;;;;;;;40.08;27.52;;;;;;;;;;4643109;28;10000420;-53
2022/07/21 08:21:52;;;;;;;33.10;26.75;;;;;;;;;;4990248;28;20727;-53
2022/07/21 08:24:18;;;;;;;33.55;26.52;;;;;;;;;;4990647;28;20112;-59
2022/07/21 08:26:45;;;;;;;32.60;27.95;;;;;;;;;;4988058;28;20621;-65
2022/07/21 08:29:11;;;;;;;32.33;25.52;;;;;;;;;;4971053;28;20181;-54
2022/07/21 08:31:37;;;;;;;32.60;25.58;;;;;;;;;;4971265;28;20085;-58
2022/07/21 08:34:03;;;;;;;31.25;25.50;;;;;;;;;;4970987;28;20034;-50
2022/07/21 08:36:29;;;;;;;31.92;24.48;;;;;;;;;;4982932;28;20027;-58
2022/07/21 08:38:55;;;;;;;32.30;23.85;;;;;;;;;;4990261;28;20041;-60
2022/07/21 08:41:22;;;;;;;32.17;23.17;;;;;;;;;;4990054;28;20065;-58
2022/07/21 08:43:49;;;;;;;32.22;23.67;;;;;;;;;;4990072;28;20120;-56
2022/07/21 08:46:16;;;;;;;28.67;22.23;;;;;;;;;;4990117;28;20030;-58
2022/07/21 08:48:42;;;;;;;27.40;20.85;;;;;;;;;;4988946;28;20069;-59
2022/07/21 08:51:09;;;;;;;29.33;21.75;;;;;;;;;;4990019;28;20603;-57
2022/07/21 08:53:35;;;;;;;31.67;21.42;;;;;;;;;;4977115;28;20502;-58
2022/07/21 08:56:01;;;;;;;27.33;20.90;;;;;;;;;;4970350;28;20034;-55
2022/07/21 08:58:27;;;;;;;27.15;20.27;;;;;;;;;;4970315;28;20536;-61
2022/07/21 09:00:54;;;;;;;26.17;19.08;;;;;;;;;;4970579;28;20088;-65
2022/07/21 09:03:29;;;;;;;28.73;19.88;;;;;;;;;;4969505;28;20052;-49
2022/07/21 09:06:07;;;;;;;27.55;19.80;;;;;;;;;;4970370;28;20039;-46
2022/07/21 09:08:43;;;;;;;25.77;20.10;;;;;;;;;;4970413;28;20038;-46
2022/07/21 09:11:15;;;;;;;24.73;18.42;;;;;;;;;;4991257;28;20023;-56
2022/07/21 09:13:42;;;;;;;24.65;18.02;;;;;;;;;;4991922;28;20395;-60
2022/07/21 09:16:09;;;;;;;27.10;19.60;;;;;;;;;;4992906;28;20030;-63
2022/07/21 09:18:35;;;;;;;25.65;18.75;;;;;;;;;;4992179;28;20037;-63
2022/07/21 09:21:01;;;;;;;25.13;19.30;;;;;;;;;;4992312;28;20061;-62
2022/07/21 09:23:28;;;;;;;25.08;19.23;;;;;;;;;;4992249;28;20026;-61
2022/07/21 09:25:56;;;;;;;25.42;18.42;;;;;;;;;;4992454;28;20053;-55
2022/07/21 09:28:22;;;;;;;22.50;17.67;;;;;;;;;;4974640;28;20037;-60
2022/07/21 09:30:52;;;;;;;22.35;17.02;;;;;;;;;;4972668;28;20381;-59
2022/07/21 09:33:23;;;;;;;25.45;18.85;;;;;;;;;;4973117;28;20106;-57
2022/07/21 09:35:53;;;;;;;23.80;18.38;;;;;;;;;;4972828;28;20026;-55
2022/07/21 09:38:19;;;;;;;24.33;17.27;;;;;;;;;;4972411;28;20411;-56
2022/07/21 09:40:48;;;;;;;22.27;17.52;;;;;;;;;;4972991;28;20174;-59
2022/07/21 09:43:30;;;;;;;21.35;16.65;;;;;;;;;;4973091;28;20027;-59
2022/07/21 09:45:56;;;;;;;22.27;16.75;;;;;;;;;;4972380;28;20074;-57
2022/07/21 09:48:35;;;;;;;24.02;17.95;;;;;;;;;;4971292;28;20033;-53
2022/07/21 09:51:19;;;;;;;21.63;17.70;;;;;;;;;;4972547;28;20106;-56
2022/07/21 09:53:53;;;;;;;25.00;18.75;;;;;;;;;;4972611;28;20532;-62
2022/07/21 09:56:20;;;;;;;23.58;18.55;;;;;;;;;;4972764;28;20037;-56
2022/07/21 09:58:47;;;;;;;25.00;18.80;;;;;;;;;;4972487;28;20114;-54
2022/07/21 10:01:13;;;;;;;24.65;18.73;;;;;;;;;;4976305;28;20054;-58
2022/07/21 10:03:39;;;;;;;26.73;19.50;;;;;;;;;;4976804;28;20073;-56
2022/07/21 10:06:06;;;;;;;23.25;19.27;;;;;;;;;;4975123;28;20088;-55
2022/07/21 10:08:33;;;;;;;26.35;19.95;;;;;;;;;;4975159;28;20033;-58
2022/07/21 10:10:59;;;;;;;21.92;17.80;;;;;;;;;;4993917;28;20025;-53
2022/07/21 10:13:25;;;;;;;23.90;20.38;;;;;;;;;;4995828;28;20026;-57
2022/07/21 10:15:51;;;;;;;25.02;19.80;;;;;;;;;;4995831;28;20030;-59
2022/07/21 10:18:22;;;;;;;25.02;20.77;;;;;;;;;;4995261;28;20030;-58
2022/07/21 10:20:51;;;;;;;24.15;20.50;;;;;;;;;;4995708;28;20157;-58
2022/07/21 10:23:27;;;;;;;25.58;20.65;;;;;;;;;;4994672;28;20072;-59
2022/07/21 10:25:53;;;;;;;23.52;19.13;;;;;;;;;;4995010;28;20395;-58
2022/07/21 10:28:20;;;;;;;21.65;18.50;;;;;;;;;;4994653;28;20498;-56
2022/07/21 10:30:46;;;;;;;23.67;18.50;;;;;;;;;;4995643;28;20026;-56
2022/07/21 10:33:13;;;;;;;23.67;18.20;;;;;;;;;;4995311;28;20737;-53
2022/07/21 10:35:42;;;;;;;23.65;19.00;;;;;;;;;;4994032;28;20043;-53
2022/07/21 10:38:24;;;;;;;23.17;18.15;;;;;;;;;;4995092;28;20048;-58
2022/07/21 10:40:51;;;;;;;22.08;17.50;;;;;;;;;;4995148;28;20080;-56
2022/07/21 10:43:19;;;;;;;22.02;17.00;;;;;;;;;;4995168;28;20474;-56
2022/07/21 10:45:45;;;;;;;20.83;16.52;;;;;;;;;;4995166;28;20398;-58
2022/07/21 10:48:29;;;;;;;22.60;16.83;;;;;;;;;;4994902;28;20027;-56
2022/07/21 10:50:58;;;;;;;25.48;15.98;;;;;;;;;;4994655;28;20053;-53
2022/07/21 10:53:24;;;;;;;22.42;15.68;;;;;;;;;;4994583;28;20383;-59
2022/07/21 10:55:54;;;;;;;20.60;16.20;;;;;;;;;;4994800;28;20026;-55
2022/07/21 10:58:23;;;;;;;21.40;14.77;;;;;;;;;;4994885;28;20094;-53
2022/07/21 11:01:02;;;;;;;20.90;15.57;;;;;;;;;;4994843;28;20097;-52
2022/07/21 11:03:41;;;;;;;21.38;15.40;;;;;;;;;;4994655;28;20033;-57
2022/07/21 11:06:19;;;;;;;21.10;15.77;;;;;;;;;;4994528;28;20037;-56
2022/07/21 11:08:45;;;;;;;20.65;15.23;;;;;;;;;;4309181;28;9999799;-56
2022/07/21 11:11:13;;;;;;;21.02;15.55;;;;;;;;;;4991482;28;20027;-55
2022/07/21 11:13:57;;;;;;;20.10;14.90;;;;;;;;;;4992691;28;20026;-57
2022/07/21 11:16:32;;;;;;;20.60;15.30;;;;;;;;;;4993338;28;20387;-58
2022/07/21 11:18:58;;;;;;;21.45;15.32;;;;;;;;;;4994544;28;20030;-55
2022/07/21 11:21:24;;;;;;;23.33;15.00;;;;;;;;;;4994245;28;20041;-53
2022/07/21 11:23:50;;;;;;;22.80;14.27;;;;;;;;;;4994241;28;20487;-57
2022/07/21 11:26:18;;;;;;;19.65;14.15;;;;;;;;;;4994071;28;20443;-61
2022/07/21 11:28:44;;;;;;;19.58;14.50;;;;;;;;;;4994072;28;20023;-57
2022/07/21 11:31:13;;;;;;;21.92;14.38;;;;;;;;;;4994434;28;20037;-56
2022/07/21 11:33:40;;;;;;;18.42;13.90;;;;;;;;;;4994285;28;20022;-57
2022/07/21 11:36:06;;;;;;;19.65;14.40;;;;;;;;;;4994137;28;20058;-54
2022/07/21 11:38:33;;;;;;;22.70;15.20;;;;;;;;;;4993712;28;20475;-51
2022/07/21 11:41:15;;;;;;;20.33;14.43;;;;;;;;;;4992304;28;20439;-57
2022/07/21 11:43:43;;;;;;;21.08;14.98;;;;;;;;;;4993814;28;20026;-57
2022/07/21 11:46:09;;;;;;;18.88;14.57;;;;;;;;;;4993649;28;20030;-53
2022/07/21 11:48:35;;;;;;;25.67;15.27;;;;;;;;;;4993710;28;20027;-53
2022/07/21 11:51:01;;;;;;;20.25;15.98;;;;;;;;;;4993343;28;20491;-59
2022/07/21 11:53:27;;;;;;;19.95;16.05;;;;;;;;;;4992542;28;20022;-59
2022/07/21 11:55:54;;;;;;;20.05;15.70;;;;;;;;;;4992203;28;20036;-58
2022/07/21 11:58:20;;;;;;;21.75;16.10;;;;;;;;;;4992009;28;20121;-62
2022/07/21 12:00:47;;;;;;;21.50;15.95;;;;;;;;;;4992860;28;20053;-58
2022/07/21 12:03:13;;;;;;;20.58;16.10;;;;;;;;;;4993142;28;20482;-57
2022/07/21 12:05:40;;;;;;;22.77;15.80;;;;;;;;;;4993036;28;20483;-56
2022/07/21 12:08:06;;;;;;;23.60;16.40;;;;;;;;;;4646816;28;10000318;-57
2022/07/21 12:10:32;;;;;;;20.13;16.08;;;;;;;;;;4990164;28;20064;-59
2022/07/21 12:13:00;;;;;;;26.95;24.45;;;;;;;;;;4990201;28;20031;-62
2022/07/21 12:15:28;;;;;;;56.53;52.00;;;;;;;;;;4987849;28;20487;-58
2022/07/21 12:18:04;;;;;;;58.30;53.78;;;;;;;;;;4997543;28;20033;-61
2022/07/21 12:20:33;;;;;;;60.45;56.10;;;;;;;;;;4990622;28;20387;-59
2022/07/21 12:23:01;;;;;;;59.78;55.28;;;;;;;;;;4990648;28;20037;-60
2022/07/21 12:25:45;;;;;;;57.78;53.47;;;;;;;;;;4989295;28;20116;-61
2022/07/21 12:28:11;;;;;;;56.42;52.13;;;;;;;;;;4990219;28;20022;-62
2022/07/21 12:30:44;;;;;;;55.28;51.08;;;;;;;;;;4990297;28;20057;-61
2022/07/21 12:33:18;;;;;;;52.95;47.92;;;;;;;;;;4989143;28;20151;-61
2022/07/21 12:35:46;;;;;;;45.80;41.88;;;;;;;;;;4990191;28;20049;-63
2022/07/21 12:38:19;;;;;;;42.38;38.63;;;;;;;;;;4992334;28;20050;-64
2022/07/21 12:40:46;;;;;;;41.70;38.15;;;;;;;;;;4991695;28;20116;-62
2022/07/21 12:43:14;;;;;;;39.00;35.60;;;;;;;;;;4992988;28;20026;-60
2022/07/21 12:45:47;;;;;;;39.63;36.05;;;;;;;;;;4992784;28;20053;-61
2022/07/21 12:48:15;;;;;;;37.60;34.30;;;;;;;;;;4992318;28;20113;-61
2022/07/21 12:53:16;;;;;;;38.92;35.22;;;;;;;;;;5009790;28;20426;-63
2022/07/21 12:55:42;;;;;;;40.08;36.30;;;;;;;;;;5012249;28;20030;-65
2022/07/21 12:58:08;;;;;;;39.15;35.80;;;;;;;;;;5011854;28;20022;-65
2022/07/21 13:00:34;;;;;;;36.90;33.67;;;;;;;;;;5012459;28;20058;-63
2022/07/21 13:03:01;;;;;;;37.33;34.13;;;;;;;;;;5012313;28;20033;-64
2022/07/21 13:05:27;;;;;;;34.17;31.15;;;;;;;;;;5012434;28;20038;-63
2022/07/21 13:07:53;;;;;;;33.50;30.50;;;;;;;;;;5012076;28;20037;-62
2022/07/21 13:10:19;;;;;;;34.95;31.60;;;;;;;;;;5012066;28;20451;-63
2022/07/21 13:12:45;;;;;;;33.05;29.90;;;;;;;;;;5012383;28;20041;-63
2022/07/21 13:15:13;;;;;;;28.23;25.52;;;;;;;;;;5010845;28;20033;-62
2022/07/21 13:17:39;;;;;;;27.60;24.90;;;;;;;;;;5012003;28;20038;-63
2022/07/21 13:20:05;;;;;;;26.17;23.58;;;;;;;;;;5012295;28;20037;-63
2022/07/21 13:22:31;;;;;;;24.25;21.73;;;;;;;;;;5012037;28;20046;-62
2022/07/21 13:24:57;;;;;;;23.35;20.95;;;;;;;;;;5012547;28;20124;-63
2022/07/21 13:27:24;;;;;;;22.13;18.77;;;;;;;;;;5021615;28;20486;-62
2022/07/21 13:29:50;;;;;;;21.27;17.83;;;;;;;;;;5032077;28;20033;-62
2022/07/21 13:32:16;;;;;;;21.02;18.75;;;;;;;;;;5031394;28;20022;-62
2022/07/21 13:34:42;;;;;;;22.90;18.05;;;;;;;;;;5031039;28;20390;-62
2022/07/21 13:37:11;;;;;;;21.60;18.85;;;;;;;;;;5031525;28;20393;-58
2022/07/21 13:39:37;;;;;;;20.70;17.10;;;;;;;;;;5029952;28;20056;-61
2022/07/21 13:42:03;;;;;;;22.35;17.67;;;;;;;;;;5031713;28;20465;-62
2022/07/21 13:44:30;;;;;;;20.80;16.80;;;;;;;;;;5030126;28;20120;-59
2022/07/21 13:46:56;;;;;;;19.05;16.13;;;;;;;;;;5031374;28;20461;-62
2022/07/21 13:49:21;;;;;;;18.42;14.38;;;;;;;;;;5031286;28;20031;-59
2022/07/21 13:51:48;;;;;;;21.55;15.48;;;;;;;;;;5031334;28;20048;-61
2022/07/21 13:54:14;;;;;;;19.58;16.35;;;;;;;;;;5031541;28;20613;-61
2022/07/21 13:56:40;;;;;;;19.40;15.07;;;;;;;;;;5031738;28;20109;-60
2022/07/21 13:59:06;;;;;;;19.08;13.98;;;;;;;;;;5029772;28;20099;-61
2022/07/21 14:01:33;;;;;;;19.13;13.48;;;;;;;;;;5031547;28;20117;-61
2022/07/21 14:03:59;;;;;;;17.27;13.48;;;;;;;;;;5030473;28;20052;-61
2022/07/21 14:06:25;;;;;;;17.90;13.98;;;;;;;;;;5031625;28;20018;-62
2022/07/21 14:08:51;;;;;;;20.30;15.90;;;;;;;;;;5017565;28;20034;-62
2022/07/21 14:11:17;;;;;;;17.77;12.90;;;;;;;;;;5011082;28;20064;-63
2022/07/21 14:13:44;;;;;;;17.75;13.38;;;;;;;;;;5010407;28;20109;-63
2022/07/21 14:16:10;;;;;;;18.25;13.68;;;;;;;;;;5011583;28;20050;-63
2022/07/21 14:18:36;;;;;;;17.38;12.90;;;;;;;;;;5010084;28;20052;-62
2022/07/21 14:21:02;;;;;;;17.33;12.30;;;;;;;;;;5011491;28;20050;-62